Time;durP1;ratioP1;P1;durP2;ratioP2;P2;SDS_P1;SDS_P2;PMS_P1;PMS_P2;Temp;Humidity;BMP_temperature;BMP_pressure;BME280_temperature;BME280_humidity;BME280_pressure;Samples;Min_cycle;Max_cycle;Signal;HPM_P1;HPM_P2
2022/04/14 00:01:06;;;;;;;4.57;3.38;;;;;;;;;;4953315;28;20563;-72
2022/04/14 00:03:34;;;;;;;3.58;3.28;;;;;;;;;;4953077;28;20047;-77
2022/04/14 00:06:01;;;;;;;3.92;3.25;;;;;;;;;;4953791;28;20043;-77
2022/04/14 00:08:28;;;;;;;5.38;3.30;;;;;;;;;;4954070;28;20607;-74
2022/04/14 00:11:22;;;;;;;3.78;3.47;;;;;;;;;;4935144;28;20134;-76
2022/04/14 00:13:49;;;;;;;4.63;3.78;;;;;;;;;;4948643;28;20190;-76
2022/04/14 00:16:17;;;;;;;3.83;3.28;;;;;;;;;;4953178;28;20065;-72
2022/04/14 00:18:44;;;;;;;4.70;3.42;;;;;;;;;;4951998;28;20372;-75
2022/04/14 00:21:11;;;;;;;3.63;3.33;;;;;;;;;;4952664;28;20045;-74
2022/04/14 00:23:39;;;;;;;4.78;3.70;;;;;;;;;;4949933;28;20073;-77
2022/04/14 00:26:07;;;;;;;3.35;3.15;;;;;;;;;;4955035;28;20043;-75
2022/04/14 00:28:35;;;;;;;4.97;3.40;;;;;;;;;;4948954;28;20715;-72
2022/04/14 00:31:04;;;;;;;4.20;3.80;;;;;;;;;;4948273;28;20065;-74
2022/04/14 00:33:32;;;;;;;5.53;3.17;;;;;;;;;;4965404;28;20062;-75
2022/04/14 00:35:59;;;;;;;5.55;3.25;;;;;;;;;;4963979;28;20645;-74
2022/04/14 00:38:26;;;;;;;4.82;3.45;;;;;;;;;;4946557;28;20360;-73
2022/04/14 00:40:55;;;;;;;3.60;3.30;;;;;;;;;;4965365;28;20517;-75
2022/04/14 00:43:33;;;;;;;4.63;3.45;;;;;;;;;;4965599;28;20054;-73
2022/04/14 00:46:00;;;;;;;3.72;3.42;;;;;;;;;;4948028;28;20050;-77
2022/04/14 00:48:29;;;;;;;4.45;3.58;;;;;;;;;;4981969;23;20145;-77
2022/04/14 00:50:56;;;;;;;4.15;3.60;;;;;;;;;;4998724;28;20061;-77
2022/04/14 00:53:24;;;;;;;4.00;3.70;;;;;;;;;;5002047;28;20045;-78
2022/04/14 00:55:52;;;;;;;4.15;3.40;;;;;;;;;;5015858;28;20124;-78
2022/04/14 00:58:19;;;;;;;4.30;3.90;;;;;;;;;;4982238;28;20477;-78
2022/04/14 01:00:47;;;;;;;3.75;3.45;;;;;;;;;;5006415;28;20133;-78
2022/04/14 01:03:16;;;;;;;3.80;3.50;;;;;;;;;;5016195;28;20100;-78
2022/04/14 01:05:45;;;;;;;3.58;3.28;;;;;;;;;;4986402;28;20038;-78
2022/04/14 01:08:17;;;;;;;4.32;3.30;;;;;;;;;;5004848;28;20042;-78
2022/04/14 01:10:47;;;;;;;3.53;3.30;;;;;;;;;;4972434;28;20161;-78
2022/04/14 01:13:18;;;;;;;4.43;3.80;;;;;;;;;;4977279;28;20076;-78
2022/04/14 01:15:46;;;;;;;4.05;3.70;;;;;;;;;;4989477;28;20056;-77
2022/04/14 01:18:14;;;;;;;4.90;4.22;;;;;;;;;;4988629;28;20599;-78
2022/04/14 01:20:42;;;;;;;4.40;4.00;;;;;;;;;;4985519;28;20120;-79
2022/04/14 01:23:10;;;;;;;4.38;3.97;;;;;;;;;;5004465;28;20049;-78
2022/04/14 01:25:39;;;;;;;6.55;4.75;;;;;;;;;;4988675;28;20104;-79
2022/04/14 01:28:06;;;;;;;7.28;5.22;;;;;;;;;;4988036;28;20050;-78
2022/04/14 01:30:35;;;;;;;6.20;4.97;;;;;;;;;;5002914;28;20042;-78
2022/04/14 01:33:03;;;;;;;8.82;5.95;;;;;;;;;;5006263;28;20174;-78
2022/04/14 01:35:31;;;;;;;14.77;6.57;;;;;;;;;;4988559;28;20038;-78
2022/04/14 01:37:58;;;;;;;11.15;6.03;;;;;;;;;;5006296;28;20300;-78
2022/04/14 01:40:26;;;;;;;11.18;6.25;;;;;;;;;;5006583;28;20740;-78
2022/04/14 01:42:53;;;;;;;13.00;7.00;;;;;;;;;;5021416;28;20445;-77
2022/04/14 01:45:20;;;;;;;11.90;7.10;;;;;;;;;;5007401;28;20124;-78
2022/04/14 01:47:48;;;;;;;13.25;7.75;;;;;;;;;;4989778;28;20048;-78
2022/04/14 01:50:16;;;;;;;12.25;7.32;;;;;;;;;;5005445;28;20524;-78
2022/04/14 01:52:47;;;;;;;11.93;7.20;;;;;;;;;;4982114;28;20129;-78
2022/04/14 01:55:14;;;;;;;13.20;7.38;;;;;;;;;;5006765;28;20046;-78
2022/04/14 01:57:42;;;;;;;13.70;7.30;;;;;;;;;;5012036;28;20042;-78
2022/04/14 02:00:10;;;;;;;12.50;8.00;;;;;;;;;;5007325;28;20104;-79
2022/04/14 02:02:39;;;;;;;11.68;7.75;;;;;;;;;;5014738;28;20046;-78
2022/04/14 02:05:07;;;;;;;16.02;9.65;;;;;;;;;;4996422;28;20516;-78
2022/04/14 02:07:35;;;;;;;18.00;10.25;;;;;;;;;;5005150;28;20038;-78
2022/04/14 02:10:03;;;;;;;14.02;8.32;;;;;;;;;;5021926;28;20371;-78
2022/04/14 02:12:30;;;;;;;12.80;9.05;;;;;;;;;;5018196;28;20489;-78
2022/04/14 02:14:58;;;;;;;13.77;9.45;;;;;;;;;;4993689;28;20517;-77
2022/04/14 02:17:25;;;;;;;14.35;9.38;;;;;;;;;;5017667;28;20038;-77
2022/04/14 02:19:52;;;;;;;15.32;9.85;;;;;;;;;;5014895;28;20069;-78
2022/04/14 02:22:20;;;;;;;12.80;8.68;;;;;;;;;;4989884;28;20065;-78
2022/04/14 02:24:47;;;;;;;14.70;9.00;;;;;;;;;;5007190;28;20049;-78
2022/04/14 02:27:15;;;;;;;14.65;8.63;;;;;;;;;;5006811;28;20066;-78
2022/04/14 02:29:43;;;;;;;14.38;8.85;;;;;;;;;;4990747;28;20450;-78
2022/04/14 02:32:10;;;;;;;14.32;8.57;;;;;;;;;;4989979;28;20048;-78
2022/04/14 02:34:38;;;;;;;14.13;8.55;;;;;;;;;;4975685;28;20045;-78
2022/04/14 02:37:05;;;;;;;12.98;9.00;;;;;;;;;;5018846;28;20126;-79
2022/04/14 02:39:32;;;;;;;14.80;9.07;;;;;;;;;;4989736;28;20056;-78
2022/04/14 02:42:00;;;;;;;12.50;7.75;;;;;;;;;;5000010;28;20578;-78
2022/04/14 02:44:28;;;;;;;9.40;7.07;;;;;;;;;;5000291;28;20045;-76
2022/04/14 02:46:55;;;;;;;11.15;7.80;;;;;;;;;;4999075;28;20056;-78
2022/04/14 02:49:23;;;;;;;9.68;7.60;;;;;;;;;;4996735;28;20046;-78
2022/04/14 02:51:50;;;;;;;10.32;6.63;;;;;;;;;;5013617;28;20049;-79
2022/04/14 02:54:18;;;;;;;10.18;6.00;;;;;;;;;;5005356;28;20072;-79
2022/04/14 02:56:45;;;;;;;7.43;6.05;;;;;;;;;;5017447;28;20046;-76
2022/04/14 02:59:12;;;;;;;8.02;5.85;;;;;;;;;;5000326;28;20137;-77
2022/04/14 03:01:40;;;;;;;6.68;5.40;;;;;;;;;;4990189;28;20053;-78
2022/04/14 03:04:07;;;;;;;9.93;6.40;;;;;;;;;;4997160;28;20042;-77
2022/04/14 03:06:35;;;;;;;5.75;5.22;;;;;;;;;;4994616;28;20053;-78
2022/04/14 03:09:02;;;;;;;6.03;5.43;;;;;;;;;;5007950;28;20037;-78
2022/04/14 03:11:29;;;;;;;5.45;4.75;;;;;;;;;;5004329;28;20124;-78
2022/04/14 03:13:57;;;;;;;11.38;6.40;;;;;;;;;;5007016;28;20092;-77
2022/04/14 03:16:24;;;;;;;8.27;5.00;;;;;;;;;;5010837;28;20042;-77
2022/04/14 03:18:51;;;;;;;6.50;5.57;;;;;;;;;;4989209;28;20050;-78
2022/04/14 03:21:19;;;;;;;6.35;5.65;;;;;;;;;;4998677;28;20039;-78
2022/04/14 03:23:46;;;;;;;8.48;6.07;;;;;;;;;;5014327;28;20065;-78
2022/04/14 03:26:14;;;;;;;5.63;5.00;;;;;;;;;;5000447;28;20049;-78
2022/04/14 03:28:41;;;;;;;6.32;5.13;;;;;;;;;;5012474;28;20679;-78
2022/04/14 03:31:10;;;;;;;8.32;4.47;;;;;;;;;;4987215;28;20049;-78
2022/04/14 03:33:37;;;;;;;4.80;4.40;;;;;;;;;;4988138;28;20398;-78
2022/04/14 03:36:05;;;;;;;4.72;4.32;;;;;;;;;;4973304;28;20108;-78
2022/04/14 03:38:32;;;;;;;6.95;5.30;;;;;;;;;;5006459;28;20153;-78
2022/04/14 03:41:06;;;;;;;5.32;4.82;;;;;;;;;;5010791;28;20186;-78
2022/04/14 03:43:36;;;;;;;5.88;4.68;;;;;;;;;;4987589;28;20070;-77
2022/04/14 03:46:06;;;;;;;6.38;5.40;;;;;;;;;;4988892;28;20062;-78
2022/04/14 03:48:34;;;;;;;5.43;4.80;;;;;;;;;;5003668;28;20042;-78
2022/04/14 03:51:02;;;;;;;5.82;4.25;;;;;;;;;;4995096;28;20417;-78
2022/04/14 03:53:29;;;;;;;4.53;4.22;;;;;;;;;;5003575;28;20133;-77
2022/04/14 03:55:56;;;;;;;6.25;5.13;;;;;;;;;;5006184;28;20045;-77
2022/04/14 03:58:24;;;;;;;5.90;5.05;;;;;;;;;;4987727;28;20038;-77
2022/04/14 04:00:51;;;;;;;4.45;4.15;;;;;;;;;;4987832;28;20045;-77
2022/04/14 04:03:19;;;;;;;7.15;5.63;;;;;;;;;;5004044;28;20149;-78
2022/04/14 04:05:46;;;;;;;6.45;5.60;;;;;;;;;;4969234;28;20125;-78
2022/04/14 04:08:14;;;;;;;5.93;5.43;;;;;;;;;;5003006;28;20538;-78
2022/04/14 04:10:41;;;;;;;5.82;5.40;;;;;;;;;;5006947;28;20053;-77
2022/04/14 04:13:08;;;;;;;7.95;5.43;;;;;;;;;;4986420;28;20145;-79
2022/04/14 04:15:36;;;;;;;6.55;5.45;;;;;;;;;;4982762;28;20544;-78
2022/04/14 04:18:05;;;;;;;9.15;6.22;;;;;;;;;;4997869;28;20046;-78
2022/04/14 04:20:32;;;;;;;5.80;4.97;;;;;;;;;;5001025;28;20037;-78
2022/04/14 04:23:03;;;;;;;5.57;5.18;;;;;;;;;;4970462;28;20502;-79
2022/04/14 04:25:31;;;;;;;5.03;4.53;;;;;;;;;;4999210;28;20087;-78
2022/04/14 04:27:59;;;;;;;5.88;5.28;;;;;;;;;;5005041;28;20049;-78
2022/04/14 04:30:26;;;;;;;6.88;4.95;;;;;;;;;;5005330;28;20053;-78
2022/04/14 04:32:54;;;;;;;6.43;5.63;;;;;;;;;;5005061;28;20046;-79
2022/04/14 04:35:22;;;;;;;9.75;5.57;;;;;;;;;;4991181;28;20085;-79
2022/04/14 04:37:49;;;;;;;5.32;4.93;;;;;;;;;;4995605;28;20124;-79
2022/04/14 04:40:18;;;;;;;5.20;4.80;;;;;;;;;;5006631;28;20108;-78
2022/04/14 04:42:46;;;;;;;8.02;4.40;;;;;;;;;;5007615;28;20046;-79
2022/04/14 04:45:13;;;;;;;7.53;4.55;;;;;;;;;;4996827;28;20410;-78
2022/04/14 04:47:41;;;;;;;4.95;4.55;;;;;;;;;;5007876;28;20069;-78
2022/04/14 04:50:08;;;;;;;7.18;5.60;;;;;;;;;;4998801;28;20129;-79
2022/04/14 04:52:36;;;;;;;5.18;4.70;;;;;;;;;;4995208;28;20038;-78
2022/04/14 04:55:03;;;;;;;6.63;4.90;;;;;;;;;;5008862;28;20050;-78
2022/04/14 04:57:31;;;;;;;5.97;5.40;;;;;;;;;;4996744;28;20660;-79
2022/04/14 04:59:58;;;;;;;5.88;5.07;;;;;;;;;;5006311;28;20050;-79
2022/04/14 05:02:25;;;;;;;6.70;6.10;;;;;;;;;;5006327;28;20037;-78
2022/04/14 05:04:53;;;;;;;5.90;5.35;;;;;;;;;;5004045;28;20137;-78
2022/04/14 05:07:20;;;;;;;6.93;6.28;;;;;;;;;;4992151;28;20470;-78
2022/04/14 05:09:48;;;;;;;9.90;8.45;;;;;;;;;;5021779;28;20073;-78
2022/04/14 05:12:15;;;;;;;8.63;7.82;;;;;;;;;;5008533;28;20077;-77
2022/04/14 05:14:42;;;;;;;8.38;7.30;;;;;;;;;;5008007;28;20561;-77
2022/04/14 05:17:10;;;;;;;7.72;6.95;;;;;;;;;;5005442;28;20037;-77
2022/04/14 05:19:37;;;;;;;9.32;6.85;;;;;;;;;;4971404;28;20144;-77
2022/04/14 05:22:05;;;;;;;9.82;6.75;;;;;;;;;;5007400;28;20417;-78
2022/04/14 05:24:33;;;;;;;10.27;7.00;;;;;;;;;;5006281;28;20069;-78
2022/04/14 05:27:00;;;;;;;9.40;6.47;;;;;;;;;;4991745;28;20128;-78
2022/04/14 05:29:28;;;;;;;11.32;6.13;;;;;;;;;;5006057;28;20042;-77
2022/04/14 05:31:56;;;;;;;8.77;6.50;;;;;;;;;;5013709;28;20061;-78
2022/04/14 05:34:23;;;;;;;7.07;6.30;;;;;;;;;;5008210;28;20072;-77
2022/04/14 05:36:51;;;;;;;6.97;6.28;;;;;;;;;;4990237;28;20037;-77
2022/04/14 05:39:18;;;;;;;9.07;6.93;;;;;;;;;;5003665;28;20525;-77
2022/04/14 05:41:45;;;;;;;9.05;8.00;;;;;;;;;;5000665;28;20162;-78
2022/04/14 05:44:13;;;;;;;8.73;8.00;;;;;;;;;;5005691;28;20042;-78
2022/04/14 05:46:40;;;;;;;9.25;6.88;;;;;;;;;;5005363;28;20084;-77
2022/04/14 05:49:07;;;;;;;10.40;7.55;;;;;;;;;;5008117;28;20041;-77
2022/04/14 05:51:35;;;;;;;7.65;6.93;;;;;;;;;;5004309;28;20042;-77
2022/04/14 05:54:02;;;;;;;10.82;6.75;;;;;;;;;;4989080;28;20117;-78
2022/04/14 05:56:30;;;;;;;7.47;6.60;;;;;;;;;;4998972;28;20057;-77
2022/04/14 05:58:57;;;;;;;8.30;6.97;;;;;;;;;;5007284;28;20513;-77
2022/04/14 06:01:25;;;;;;;9.55;6.90;;;;;;;;;;5003561;28;20234;-77
2022/04/14 06:03:53;;;;;;;6.47;5.78;;;;;;;;;;4955665;28;20429;-78
2022/04/14 06:06:20;;;;;;;6.15;5.60;;;;;;;;;;4990081;28;20046;-78
2022/04/14 06:08:47;;;;;;;7.03;6.40;;;;;;;;;;5007308;28;20504;-77
2022/04/14 06:11:15;;;;;;;9.35;5.82;;;;;;;;;;5003399;28;20049;-77
2022/04/14 06:13:42;;;;;;;6.53;5.75;;;;;;;;;;4991777;28;20703;-78
2022/04/14 06:16:10;;;;;;;8.48;5.95;;;;;;;;;;5006789;28;20053;-77
2022/04/14 06:18:37;;;;;;;6.50;5.72;;;;;;;;;;4988538;28;20053;-78
2022/04/14 06:21:04;;;;;;;10.05;5.97;;;;;;;;;;4990918;28;20438;-78
2022/04/14 06:23:32;;;;;;;7.28;6.38;;;;;;;;;;4974380;28;20183;-77
2022/04/14 06:25:59;;;;;;;6.25;5.63;;;;;;;;;;5007533;28;20058;-77
2022/04/14 06:28:27;;;;;;;8.00;6.40;;;;;;;;;;5007347;28;20041;-78
2022/04/14 06:30:56;;;;;;;10.10;6.50;;;;;;;;;;4987911;28;20096;-78
2022/04/14 06:33:25;;;;;;;7.57;6.38;;;;;;;;;;5006010;28;20465;-78
2022/04/14 06:35:53;;;;;;;6.60;5.80;;;;;;;;;;4981703;28;20128;-77
2022/04/14 06:38:21;;;;;;;9.32;6.60;;;;;;;;;;4998338;28;20057;-78
2022/04/14 06:40:48;;;;;;;9.57;6.80;;;;;;;;;;4988589;28;20406;-79
2022/04/14 06:43:16;;;;;;;6.18;5.30;;;;;;;;;;4995802;28;20262;-77
2022/04/14 06:45:43;;;;;;;7.28;6.13;;;;;;;;;;4972061;28;20565;-78
2022/04/14 06:48:11;;;;;;;5.60;5.05;;;;;;;;;;4989099;28;20085;-78
2022/04/14 06:50:40;;;;;;;7.30;6.68;;;;;;;;;;5010746;23;20132;-77
2022/04/14 06:53:07;;;;;;;6.72;6.10;;;;;;;;;;5017990;28;20492;-74
2022/04/14 06:55:36;;;;;;;8.20;5.50;;;;;;;;;;5038422;28;20528;-75
2022/04/14 06:58:03;;;;;;;8.60;6.90;;;;;;;;;;5018350;28;20057;-74
2022/04/14 07:00:31;;;;;;;6.63;6.03;;;;;;;;;;5017956;28;21449;-77
2022/04/14 07:03:26;;;;;;;7.32;5.90;;;;;;;;;;4989742;28;20053;-77
2022/04/14 07:05:56;;;;;;;9.40;5.95;;;;;;;;;;5024352;28;20500;-74
2022/04/14 07:08:24;;;;;;;7.47;5.63;;;;;;;;;;5017815;28;20494;-77
2022/04/14 07:10:52;;;;;;;6.82;5.97;;;;;;;;;;5021464;28;20672;-77
2022/04/14 07:13:20;;;;;;;6.95;6.00;;;;;;;;;;5010225;28;20046;-73
2022/04/14 07:15:48;;;;;;;7.68;5.45;;;;;;;;;;5022882;28;20073;-75
2022/04/14 07:18:15;;;;;;;6.53;5.35;;;;;;;;;;5007866;28;20208;-77
2022/04/14 07:20:44;;;;;;;7.15;5.60;;;;;;;;;;5019236;28;20133;-73
2022/04/14 07:23:12;;;;;;;5.82;4.68;;;;;;;;;;5013351;28;20136;-74
2022/04/14 07:25:39;;;;;;;6.22;5.63;;;;;;;;;;5019072;28;20477;-74
2022/04/14 07:28:07;;;;;;;5.55;4.75;;;;;;;;;;5009899;28;20125;-75
2022/04/14 07:30:39;;;;;;;6.30;5.05;;;;;;;;;;4988608;28;20050;-73
2022/04/14 07:33:07;;;;;;;5.60;4.50;;;;;;;;;;5022918;28;20045;-75
2022/04/14 07:35:35;;;;;;;4.82;4.30;;;;;;;;;;5025664;28;20515;-77
2022/04/14 07:38:02;;;;;;;7.22;5.00;;;;;;;;;;5026712;28;20053;-73
2022/04/14 07:40:29;;;;;;;5.30;4.80;;;;;;;;;;5008598;28;20049;-73
2022/04/14 07:43:01;;;;;;;5.55;4.38;;;;;;;;;;5017353;28;20045;-74
2022/04/14 07:45:29;;;;;;;5.22;4.57;;;;;;;;;;5016039;28;20099;-76
2022/04/14 07:47:57;;;;;;;6.93;4.78;;;;;;;;;;5023719;28;20073;-74
2022/04/14 07:50:24;;;;;;;5.55;4.78;;;;;;;;;;5016274;28;20482;-75
2022/04/14 07:52:56;;;;;;;5.20;4.70;;;;;;;;;;5018918;28;20335;-73
2022/04/14 07:55:25;;;;;;;4.93;4.53;;;;;;;;;;5021223;28;20333;-74
2022/04/14 07:57:54;;;;;;;10.00;4.93;;;;;;;;;;5023692;28;20045;-76
2022/04/14 08:00:21;;;;;;;9.52;5.05;;;;;;;;;;5012397;28;20069;-74
2022/04/14 08:02:58;;;;;;;6.22;5.20;;;;;;;;;;5004790;28;20434;-74
2022/04/14 08:05:28;;;;;;;6.05;4.90;;;;;;;;;;5005220;28;20046;-74
2022/04/14 08:07:56;;;;;;;6.28;4.70;;;;;;;;;;5008415;28;20045;-74
2022/04/14 08:10:24;;;;;;;5.55;5.03;;;;;;;;;;5004962;28;20152;-74
2022/04/14 08:12:51;;;;;;;6.05;4.82;;;;;;;;;;5016671;28;21063;-74
2022/04/14 08:15:19;;;;;;;8.43;5.60;;;;;;;;;;5025501;28;20052;-77
2022/04/14 08:17:46;;;;;;;5.43;5.03;;;;;;;;;;5008681;28;20053;-73
2022/04/14 08:20:15;;;;;;;5.25;4.82;;;;;;;;;;5011481;28;20053;-74
2022/04/14 08:22:50;;;;;;;7.50;5.22;;;;;;;;;;5004480;28;20033;-76
2022/04/14 08:25:19;;;;;;;7.95;5.63;;;;;;;;;;5024751;28;20054;-75
2022/04/14 08:27:47;;;;;;;7.60;5.43;;;;;;;;;;5022377;28;20045;-74
2022/04/14 08:30:16;;;;;;;6.32;5.35;;;;;;;;;;5026889;28;20117;-74
2022/04/14 08:32:44;;;;;;;6.85;5.13;;;;;;;;;;5028713;28;20116;-75
2022/04/14 08:35:13;;;;;;;6.53;5.55;;;;;;;;;;5029260;28;20051;-75
2022/04/14 08:38:01;;;;;;;7.93;5.13;;;;;;;;;;5027542;28;20175;-74
2022/04/14 08:40:34;;;;;;;7.60;5.30;;;;;;;;;;5024002;28;20054;-75
2022/04/14 08:43:03;;;;;;;6.35;5.75;;;;;;;;;;5027719;28;20140;-74
2022/04/14 08:45:34;;;;;;;8.02;6.38;;;;;;;;;;5029084;28;20049;-77
2022/04/14 08:48:03;;;;;;;6.25;5.75;;;;;;;;;;5013601;28;20046;-76
2022/04/14 08:50:32;;;;;;;6.03;5.43;;;;;;;;;;5023201;28;20413;-75
2022/04/14 08:53:09;;;;;;;8.38;6.40;;;;;;;;;;5030467;28;20053;-75
2022/04/14 08:55:40;;;;;;;5.50;5.00;;;;;;;;;;5026135;28;20136;-74
2022/04/14 08:58:28;;;;;;;8.52;6.28;;;;;;;;;;4977313;28;20471;-77
2022/04/14 09:00:56;;;;;;;6.97;6.30;;;;;;;;;;5026011;28;20053;-74
2022/04/14 09:03:43;;;;;;;9.05;6.35;;;;;;;;;;5026388;28;20493;-76
2022/04/14 09:06:11;;;;;;;6.55;5.95;;;;;;;;;;5032466;28;20046;-74
2022/04/14 09:08:38;;;;;;;6.72;6.07;;;;;;;;;;5025233;28;20065;-75
2022/04/14 09:11:08;;;;;;;7.47;6.05;;;;;;;;;;5018378;28;20046;-77
2022/04/14 09:13:38;;;;;;;6.20;5.60;;;;;;;;;;5020017;28;20057;-76
2022/04/14 09:16:06;;;;;;;7.43;5.85;;;;;;;;;;5004179;28;20568;-75
2022/04/14 09:18:34;;;;;;;5.95;5.45;;;;;;;;;;5020075;28;20046;-76
2022/04/14 09:21:05;;;;;;;8.30;6.50;;;;;;;;;;5010708;28;20053;-74
2022/04/14 09:23:32;;;;;;;9.93;5.90;;;;;;;;;;5011953;28;20045;-77
2022/04/14 09:26:06;;;;;;;7.15;5.45;;;;;;;;;;5010595;28;20528;-76
2022/04/14 09:28:33;;;;;;;6.75;6.10;;;;;;;;;;5023096;28;20108;-74
2022/04/14 09:31:05;;;;;;;7.15;6.45;;;;;;;;;;5014288;28;20041;-78
2022/04/14 09:33:34;;;;;;;7.40;5.72;;;;;;;;;;4995668;28;20406;-74
2022/04/14 09:36:06;;;;;;;6.53;5.82;;;;;;;;;;5005704;28;20053;-72
2022/04/14 09:38:53;;;;;;;8.05;5.95;;;;;;;;;;5023064;28;20048;-74
2022/04/14 09:41:39;;;;;;;5.90;5.38;;;;;;;;;;5016044;28;20052;-72
2022/04/14 09:44:10;;;;;;;6.60;6.03;;;;;;;;;;5014542;28;20057;-72
2022/04/14 09:46:47;;;;;;;6.15;5.65;;;;;;;;;;5011458;28;20054;-73
2022/04/14 09:49:16;;;;;;;6.13;5.63;;;;;;;;;;5008944;28;20425;-72
2022/04/14 09:51:47;;;;;;;6.47;5.57;;;;;;;;;;5011492;28;20415;-75
2022/04/14 09:54:17;;;;;;;9.50;5.80;;;;;;;;;;5027924;28;20553;-72
2022/04/14 09:56:54;;;;;;;6.05;5.45;;;;;;;;;;5020583;28;20042;-72
2022/04/14 09:59:23;;;;;;;7.47;6.13;;;;;;;;;;5021324;28;20046;-75
2022/04/14 10:02:09;;;;;;;7.38;5.80;;;;;;;;;;5018493;28;20295;-73
2022/04/14 10:04:38;;;;;;;5.72;5.22;;;;;;;;;;5004804;28;20120;-72
2022/04/14 10:07:10;;;;;;;5.78;5.28;;;;;;;;;;5029639;28;20041;-72
2022/04/14 10:09:41;;;;;;;11.00;5.55;;;;;;;;;;5046438;28;20048;-74
2022/04/14 10:12:20;;;;;;;7.18;5.85;;;;;;;;;;5030184;28;20045;-76
2022/04/14 10:15:03;;;;;;;7.93;5.45;;;;;;;;;;5011791;28;20207;-73
2022/04/14 10:17:37;;;;;;;7.38;5.32;;;;;;;;;;5012857;28;20111;-74
2022/04/14 10:20:08;;;;;;;5.28;4.85;;;;;;;;;;5023240;28;20052;-74
2022/04/14 10:22:37;;;;;;;6.03;5.38;;;;;;;;;;5019741;28;20053;-73
2022/04/14 10:25:05;;;;;;;5.88;5.20;;;;;;;;;;5018013;28;20125;-73
2022/04/14 10:27:33;;;;;;;6.88;4.97;;;;;;;;;;5016668;28;20041;-73
2022/04/14 10:30:01;;;;;;;6.18;5.63;;;;;;;;;;5015173;28;20129;-72
2022/04/14 10:32:30;;;;;;;5.72;5.22;;;;;;;;;;5020244;28;20402;-75
2022/04/14 10:34:59;;;;;;;5.97;5.15;;;;;;;;;;5006911;28;20366;-74
2022/04/14 10:37:42;;;;;;;5.55;5.15;;;;;;;;;;5019261;28;20051;-77
2022/04/14 10:40:10;;;;;;;6.20;5.32;;;;;;;;;;5009486;28;20065;-74
2022/04/14 10:42:38;;;;;;;8.07;5.70;;;;;;;;;;4999952;28;20050;-73
2022/04/14 10:45:17;;;;;;;6.03;5.45;;;;;;;;;;5019231;28;20042;-74
2022/04/14 10:47:44;;;;;;;6.25;5.68;;;;;;;;;;5020816;28;20048;-79
2022/04/14 10:50:24;;;;;;;8.35;5.90;;;;;;;;;;5014727;28;20049;-75
2022/04/14 10:53:01;;;;;;;9.63;5.43;;;;;;;;;;4988863;28;20038;-75
2022/04/14 10:55:37;;;;;;;5.18;4.32;;;;;;;;;;5010638;28;20099;-75
2022/04/14 10:58:05;;;;;;;6.88;5.40;;;;;;;;;;5018326;28;20490;-76
2022/04/14 11:00:32;;;;;;;8.77;5.07;;;;;;;;;;5020246;28;20091;-75
2022/04/14 11:03:11;;;;;;;4.65;4.25;;;;;;;;;;5013347;28;20034;-72
2022/04/14 11:05:46;;;;;;;4.90;4.50;;;;;;;;;;5016269;28;20053;-75
2022/04/14 11:08:31;;;;;;;5.43;4.43;;;;;;;;;;5016674;28;20498;-73
2022/04/14 11:11:09;;;;;;;7.45;4.53;;;;;;;;;;5011906;28;20043;-75
2022/04/14 11:13:55;;;;;;;4.22;3.83;;;;;;;;;;5017020;28;20053;-76
2022/04/14 11:16:41;;;;;;;5.25;4.00;;;;;;;;;;5013586;28;20115;-75
2022/04/14 11:19:26;;;;;;;5.60;4.30;;;;;;;;;;5009479;28;20394;-74
2022/04/14 11:22:02;;;;;;;4.82;4.43;;;;;;;;;;5015651;28;20041;-76
2022/04/14 11:24:45;;;;;;;4.22;3.83;;;;;;;;;;5014970;28;20091;-76
2022/04/14 11:27:14;;;;;;;3.97;3.65;;;;;;;;;;5013841;28;20501;-74
2022/04/14 11:29:46;;;;;;;5.07;3.35;;;;;;;;;;5015132;28;20137;-76
2022/04/14 11:32:13;;;;;;;;;;;;;;;;;;5017137;28;20045;-75
2022/04/14 11:35:13;;;;;;;9.27;4.10;;;;;;;;;;5009032;28;19991;-76
2022/04/14 11:37:45;;;;;;;6.15;3.20;;;;;;;;;;5016357;28;20034;-76
2022/04/14 11:40:12;;;;;;;3.95;3.65;;;;;;;;;;5016609;28;20096;-77
2022/04/14 11:42:41;;;;;;;7.25;3.65;;;;;;;;;;5011537;28;20042;-75
2022/04/14 11:45:08;;;;;;;5.50;3.80;;;;;;;;;;5007130;28;20135;-74
2022/04/14 11:47:39;;;;;;;6.15;3.70;;;;;;;;;;5008141;28;20037;-76
2022/04/14 11:50:07;;;;;;;4.40;3.20;;;;;;;;;;5002528;28;20104;-76
2022/04/14 11:52:38;;;;;;;7.55;4.72;;;;;;;;;;5002662;28;20373;-77
2022/04/14 11:55:07;;;;;;;8.77;4.88;;;;;;;;;;4988063;28;20056;-75
2022/04/14 11:57:37;;;;;;;7.88;4.78;;;;;;;;;;5007168;28;20552;-74
2022/04/14 12:00:10;;;;;;;5.88;4.50;;;;;;;;;;5004159;28;20251;-74
2022/04/14 12:02:38;;;;;;;5.43;4.93;;;;;;;;;;5003319;28;20045;-75
2022/04/14 12:05:06;;;;;;;7.93;4.00;;;;;;;;;;4988798;28;20092;-76
2022/04/14 12:07:35;;;;;;;6.07;4.20;;;;;;;;;;5008640;28;20054;-75
2022/04/14 12:10:07;;;;;;;6.70;4.40;;;;;;;;;;4986087;28;20142;-75
2022/04/14 12:12:35;;;;;;;4.28;3.80;;;;;;;;;;4991110;28;20034;-74
2022/04/14 12:15:03;;;;;;;4.78;4.00;;;;;;;;;;5006459;28;20061;-75
2022/04/14 12:17:30;;;;;;;3.95;3.50;;;;;;;;;;5003601;28;20174;-73
2022/04/14 12:20:00;;;;;;;3.70;3.30;;;;;;;;;;4990365;28;20054;-74
2022/04/14 12:22:31;;;;;;;4.40;3.30;;;;;;;;;;5002421;28;20073;-76
2022/04/14 12:24:59;;;;;;;9.30;4.10;;;;;;;;;;5004914;28;20463;-74
2022/04/14 12:27:34;;;;;;;4.75;3.47;;;;;;;;;;4987735;28;20053;-75
2022/04/14 12:30:07;;;;;;;4.22;2.92;;;;;;;;;;4986573;28;20072;-73
2022/04/14 12:32:36;;;;;;;3.25;2.95;;;;;;;;;;4988891;28;20595;-76
2022/04/14 12:35:06;;;;;;;6.15;3.22;;;;;;;;;;5005530;28;20049;-74
2022/04/14 12:37:35;;;;;;;5.28;3.22;;;;;;;;;;4985445;28;20046;-75
2022/04/14 12:40:09;;;;;;;5.25;3.58;;;;;;;;;;4996227;28;20061;-74
2022/04/14 12:42:39;;;;;;;6.90;3.25;;;;;;;;;;5000649;28;20148;-73
2022/04/14 12:45:08;;;;;;;5.20;3.00;;;;;;;;;;4995558;28;20366;-76
2022/04/14 12:47:36;;;;;;;4.18;3.00;;;;;;;;;;5005756;28;20595;-74
2022/04/14 12:50:04;;;;;;;3.78;2.83;;;;;;;;;;5011134;23;20744;-87
2022/04/14 12:52:32;;;;;;;3.75;2.80;;;;;;;;;;5014781;28;20057;-87
2022/04/14 12:54:59;;;;;;;3.53;3.22;;;;;;;;;;5016780;28;20050;-88
2022/04/14 12:57:28;;;;;;;6.85;3.50;;;;;;;;;;4998060;28;20140;-88
2022/04/14 13:00:01;;;;;;;3.70;2.90;;;;;;;;;;4999769;28;20625;-88
2022/04/14 13:02:28;;;;;;;6.63;3.50;;;;;;;;;;4981193;28;20092;-87
2022/04/14 13:05:16;;;;;;;4.40;3.60;;;;;;;;;;4972457;28;20053;-87
2022/04/14 13:07:50;;;;;;;4.50;3.97;;;;;;;;;;4977821;28;20409;-86
2022/04/14 13:10:31;;;;;;;4.95;3.50;;;;;;;;;;4974444;28;20075;-87
2022/04/14 13:12:59;;;;;;;5.32;4.07;;;;;;;;;;4962673;28;20048;-87
2022/04/14 13:15:26;;;;;;;6.75;4.13;;;;;;;;;;4955985;28;20049;-88
2022/04/14 13:17:54;;;;;;;5.72;4.30;;;;;;;;;;4949740;28;20538;-89
2022/04/14 13:20:25;;;;;;;8.43;3.80;;;;;;;;;;4970354;28;20046;-89
2022/04/14 13:22:52;;;;;;;8.87;4.73;;;;;;;;;;4966547;28;20099;-88
2022/04/14 13:25:21;;;;;;;6.93;3.92;;;;;;;;;;4982748;28;20578;-89
2022/04/14 13:27:48;;;;;;;4.32;3.80;;;;;;;;;;4998784;28;20046;-89
2022/04/14 13:30:16;;;;;;;7.10;3.92;;;;;;;;;;4999591;28;20038;-89
2022/04/14 13:32:47;;;;;;;4.75;3.75;;;;;;;;;;4978271;28;20069;-88
2022/04/14 13:35:18;;;;;;;13.45;4.38;;;;;;;;;;4965990;28;20436;-89
2022/04/14 13:37:45;;;;;;;8.15;4.32;;;;;;;;;;4982338;28;20129;-88
2022/04/14 13:40:13;;;;;;;5.00;4.00;;;;;;;;;;4983789;28;20049;-88
2022/04/14 13:42:42;;;;;;;9.27;4.60;;;;;;;;;;4964049;28;20693;-87
2022/04/14 13:45:09;;;;;;;9.30;4.93;;;;;;;;;;4966486;28;20065;-90
2022/04/14 13:47:40;;;;;;;4.15;3.70;;;;;;;;;;5000898;28;20034;-89
2022/04/14 13:50:11;;;;;;;5.32;4.00;;;;;;;;;;4961290;28;20045;-89
2022/04/14 13:52:39;;;;;;;6.10;3.80;;;;;;;;;;4957706;28;20049;-89
2022/04/14 13:55:07;;;;;;;4.88;3.90;;;;;;;;;;4976351;28;20049;-88
2022/04/14 13:57:35;;;;;;;6.70;4.30;;;;;;;;;;4986029;28;20049;-88
2022/04/14 14:00:06;;;;;;;8.20;4.63;;;;;;;;;;5002339;28;20042;-89
2022/04/14 14:02:38;;;;;;;10.75;4.57;;;;;;;;;;4986709;28;20054;-88
2022/04/14 14:05:17;;;;;;;6.75;5.25;;;;;;;;;;4956691;28;20112;-89
2022/04/14 14:07:47;;;;;;;7.13;5.18;;;;;;;;;;4980368;28;20042;-89
2022/04/14 14:10:17;;;;;;;;;;;;;;;;;;4983309;28;20049;-89
2022/04/14 14:12:47;;;;;;;8.23;4.72;;;;;;;;;;4970279;28;19930;-88
2022/04/14 14:15:14;;;;;;;7.25;4.65;;;;;;;;;;4980337;28;20054;-88
2022/04/14 14:17:42;;;;;;;5.85;4.45;;;;;;;;;;4979426;28;20052;-89
2022/04/14 14:20:11;;;;;;;9.65;4.85;;;;;;;;;;4970014;28;20082;-89
2022/04/14 14:22:45;;;;;;;7.70;5.82;;;;;;;;;;5002043;28;20402;-89
2022/04/14 14:25:13;;;;;;;8.18;4.75;;;;;;;;;;4981864;28;20121;-88
2022/04/14 14:27:44;;;;;;;5.95;4.30;;;;;;;;;;4951874;28;20046;-89
2022/04/14 14:30:11;;;;;;;8.57;4.55;;;;;;;;;;4973878;28;20046;-89
2022/04/14 14:33:05;;;;;;;11.13;5.03;;;;;;;;;;4958176;28;20050;-88
2022/04/14 14:35:42;;;;;;;6.47;4.20;;;;;;;;;;4981109;28;20042;-88
2022/04/14 14:38:15;;;;;;;6.07;4.13;;;;;;;;;;4984500;28;20149;-89
2022/04/14 14:40:55;;;;;;;5.20;3.90;;;;;;;;;;4964469;28;20041;-89
2022/04/14 14:43:23;;;;;;;4.20;3.78;;;;;;;;;;4982777;28;20939;-88
2022/04/14 14:45:51;;;;;;;6.75;4.22;;;;;;;;;;4985570;28;20061;-88
2022/04/14 14:48:18;;;;;;;4.97;4.45;;;;;;;;;;4983244;28;20346;-90
2022/04/14 14:50:46;;;;;;;4.95;3.83;;;;;;;;;;4997241;28;20045;-88
2022/04/14 14:53:13;;;;;;;8.20;3.53;;;;;;;;;;4974037;28;20533;-89
2022/04/14 14:55:40;;;;;;;9.65;3.80;;;;;;;;;;4966441;28;20045;-88
2022/04/14 15:00:54;;;;;;;5.05;3.15;;;;;;;;;;4969226;28;20073;-89